Weather observations for the past three days for
Batavia Clermont County Airport
Imperial (Metric)
Date Time (edt) Wind (mph) Vis. (mi.) Weather Sky Cond. Temperature (ºF) Relative Humidity Wind Chill (°F) Heat Index (°F) Pressure Precipitation (in)
Air Dwpt 6 hour altimeter (in) sea level (mb) 1 hr 3 hr 6 hr
Max. Min.
04 15:56 SW 13 G 18 10.00 Fair CLR 74.5 51.4 45% 29.79 0.0
04 15:36 SW 16 G 22 10.00 Fair CLR 73.6 52 47% 29.81 0.0
04 15:16 W 6 10.00 Partly Cloudy SCT110 72.3 54 53% 29.81 0.0
04 14:56 W 14 G 18 10.00 Partly Cloudy SCT110 70.9 52 51% 29.82 0.0
04 14:36 SW 12 G 20 10.00 Partly Cloudy SCT110 70 52 53% 29.82 0.0
04 14:16 SW 14 G 20 10.00 Partly Cloudy SCT110 69.8 51.4 52% 29.81 0.0
04 13:56 SW 9 G 20 10.00 Partly Cloudy SCT120 69.6 50.7 69.6 54.5 51% 29.81 0.0
04 13:36 SW 13 G 17 10.00 Partly Cloudy SCT110 68.4 50.5 53% 29.81 0.0
04 13:16 SW 9 10.00 Partly Cloudy SCT110 68.7 50.5 52% 29.81 0.0
04 12:56 SW 12 G 16 10.00 Partly Cloudy SCT120 68 50.7 54% 29.81 0.0
04 12:36 SW 12 G 21 10.00 Fair CLR 68 50.5 54% 29.83 0.0
04 12:16 SW 12 G 18 10.00 Fair CLR 66.9 48.9 53% 29.84 0.0
04 11:56 W 12 10.00 Fair CLR 67.3 50 54% 29.82 0.0
04 11:36 SW 8 10.00 Fair CLR 65.3 49.5 57% 29.83 0.0
04 11:16 SW 6 10.00 Partly Cloudy SCT100 SCT120 64.2 48.9 58% 29.83 0.0
04 10:56 SW 7 10.00 Mostly Cloudy SCT049 SCT100 BKN120 61.2 47.8 62% 29.83 0.0
04 10:36 S 9 G 16 10.00 Fair CLR 60.8 46.6 60% 29.84 0.0
04 10:16 S 8 10.00 Fair CLR 60.4 46.9 61% 29.84 0.0
04 09:56 SW 12 G 17 10.00 Fair CLR 58.5 46.4 64% 29.84 0.0
04 09:36 SW 9 G 16 10.00 Fair CLR 57.7 46 65% 29.85 0.0
04 09:16 SW 8 10.00 Fair CLR 56.3 45.5 67% 29.85 0.0
04 08:56 S 10 10.00 Partly Cloudy SCT100 55.4 44.2 66% 29.85 0.0
04 08:36 SW 8 10.00 Partly Cloudy SCT090 SCT110 54.9 43.3 65% 29.86 0.0
04 08:16 SW 9 G 16 10.00 Mostly Cloudy BKN090 54.5 42.4 64% 29.86 0.0
04 07:56 SW 8 10.00 Partly Cloudy SCT070 SCT090 SCT110 54.3 41.4 54.3 52.7 62% 29.86 0.0
04 07:36 SW 6 10.00 Mostly Cloudy BKN070 BKN080 BKN110 53.6 40.5 61% 29.85 0.0
04 07:16 SW 7 10.00 Partly Cloudy SCT090 SCT110 53.6 39.7 60% 29.85 0.0
04 06:56 SW 8 10.00 Partly Cloudy SCT090 52.9 39.4 60% 29.85 0.0
04 06:36 SW 7 10.00 Partly Cloudy SCT100 52.7 39.2 60% 29.85 0.0
04 06:16 SW 7 10.00 Mostly Cloudy BKN100 52.9 38.7 59% 29.85 0.0
04 05:56 SW 6 10.00 Fair CLR 52.7 38.3 58% 29.85 0.0
04 05:36 SW 8 10.00 Partly Cloudy SCT075 SCT095 SCT110 52.9 38.1 57% 29.86 0.0
04 05:16 SW 10 G 17 10.00 Mostly Cloudy SCT085 BKN100 53.6 37.6 55% 29.86 0.0
04 04:56 SW 7 10.00 Partly Cloudy SCT095 53.1 37.4 55% 29.86 0.0
04 04:36 SW 9 10.00 Fair CLR 52.7 37 55% 29.87 0.0
04 04:16 SW 9 10.00 Fair CLR 52.9 36.7 54% 29.87 0.0
04 03:56 SW 8 10.00 Partly Cloudy SCT090 53.1 36.5 54% 29.88 0.0
04 03:36 SW 8 G 16 10.00 Partly Cloudy SCT075 SCT110 53.2 36.3 53% 29.88 0.0
04 03:16 SW 9 10.00 Mostly Cloudy BKN085 53.6 36.1 52% 29.89 0.0
04 02:56 SW 8 10.00 Partly Cloudy SCT085 53.4 36.1 52% 29.89 0.0
04 02:36 SW 10 10.00 Fair CLR 53.6 36 51% 29.9 0.0
04 02:16 SW 8 10.00 Partly Cloudy SCT100 53.6 35.8 51% 29.9 0.0
04 01:56 SW 8 10.00 Fair CLR 53.4 36 59 52 52% 29.92 0.0
04 01:36 SW 8 10.00 Partly Cloudy SCT075 SCT100 53.8 36 51% 29.92 0.0
04 01:16 SW 7 10.00 Mostly Cloudy SCT075 BKN100 54.3 36.1 50% 29.92 0.0
04 00:56 SW 5 10.00 Fair CLR 53.2 36 52% 29.92 0.0
04 00:36 SW 7 10.00 Partly Cloudy SCT100 53.4 36.1 52% 29.93 0.0
04 00:16 SW 6 10.00 Partly Cloudy SCT100 52.7 36.7 55% 29.93 0.0
03 23:56 S 3 10.00 Partly Cloudy SCT110 52.2 36.7 56% 29.94 0.0
03 23:36 S 3 10.00 Overcast OVC110 53.1 36.1 53% 29.94 0.0
03 23:16 S 3 10.00 Overcast SCT085 OVC110 53.1 36.5 54% 29.94 0.0
03 22:56 S 3 10.00 Overcast OVC085 53.1 37 55% 29.96 0.0
03 22:36 Calm 10.00 Overcast BKN085 OVC120 53.8 37.2 54% 29.96 0.0
03 22:16 Calm 10.00 Overcast OVC085 54.3 37.8 54% 29.95 0.0
03 21:56 S 3 10.00 Overcast SCT070 OVC085 55.4 36.3 49% 29.95 0.0
03 21:36 S 5 10.00 Overcast BKN070 OVC075 55.8 36 48% 29.94 0.0
03 21:16 SW 3 10.00 Overcast OVC070 58.1 32 37% 29.94 0.0
03 20:56 SW 8 10.00 Overcast SCT070 OVC080 58.3 31.8 37% 29.94 0.0
03 20:36 SW 5 10.00 Mostly Cloudy BKN080 58.5 31.8 37% 29.94 0.0
03 20:16 S 5 10.00 Mostly Cloudy BKN080 58.6 31.3 36% 29.93 0.0
03 19:56 SW 7 10.00 Mostly Cloudy BKN080 59.2 30.9 62.6 59.2 34% 29.93 0.0
03 19:36 SW 10 10.00 Overcast BKN080 OVC100 59.5 31.1 34% 29.94 0.0
03 19:16 SW 5 10.00 Overcast OVC080 59.9 30.9 33% 29.96 0.0
03 18:56 SW 12 10.00 Overcast OVC090 60.1 30.2 32% 29.97 0.0
03 18:36 SW 12 G 20 10.00 Overcast OVC100 60.4 30.6 32% 29.97 0.0
03 18:16 SW 9 10.00 Overcast OVC100 61.9 31.6 32% 29.98 0.0
03 17:56 SW 12 10.00 Overcast BKN100 OVC120 60.4 31.1 33% 29.99 0.0
03 17:36 W 9 10.00 Overcast OVC100 60.4 30.9 33% 29.98 0.0
03 17:16 W 9 G 18 10.00 Overcast OVC100 60.4 30.9 33% 30 0.0
03 16:56 W 10 10.00 Mostly Cloudy BKN110 60.3 31.1 33% 30 0.0
03 16:36 W 13 G 20 10.00 Overcast OVC110 60.3 30.6 33% 30 0.0
03 16:16 SW 12 G 21 10.00 Overcast OVC110 60.1 30.7 33% 30 0.0
03 15:56 W 13 10.00 Partly Cloudy SCT120 61.7 31.3 32% 30.01 0.0
03 15:36 W 13 G 16 10.00 Partly Cloudy SCT120 61.9 30.9 31% 30.03 0.0
03 15:16 SW 8 10.00 Mostly Cloudy BKN120 62.2 30.9 31% 30.04 0.0
03 14:56 SW 12 G 21 10.00 Partly Cloudy SCT120 60.4 30.2 32% 30.04 0.0
03 14:36 SW 8 G 17 10.00 Partly Cloudy SCT120 60.8 31.3 33% 30.06 0.0
03 14:16 SW 13 G 18 10.00 Fair CLR 60.8 31.5 33% 30.06 0.0
03 13:56 SW 12 G 17 10.00 Fair CLR 59.9 30.6 60.6 40.3 33% 30.07 0.0
03 13:36 W 12 G 16 10.00 Fair CLR 60.1 30.9 33% 30.08 0.0
03 13:16 SW 10 G 22 10.00 Fair CLR 59.7 31.3 34% 30.09 0.0
03 12:56 SW 10 G 20 10.00 Fair CLR 58.8 30.2 34% 30.1 0.0
03 12:36 W 6 G 18 10.00 Fair CLR 58.1 30.6 35% 30.11 0.0
03 12:16 W 7 G 17 10.00 Fair CLR 57.7 29.8 35% 30.12 0.0
03 11:56 W 10 G 17 10.00 Fair CLR 57.2 31.3 37% 30.13 0.0
03 11:36 W 12 10.00 Fair CLR 57 31.1 37% 30.13 0.0
03 11:16 W 12 G 16 10.00 Fair CLR 55.8 31.3 39% 30.13 0.0
03 10:56 SW 8 G 17 10.00 Fair CLR 54.1 31.5 42% 30.13 0.0
03 10:36 W 12 10.00 Fair CLR 52.7 32.2 46% 30.13 0.0
03 10:16 W 10 G 17 10.00 Fair CLR 51.1 32.9 50% 30.13 0.0
03 09:56 W 13 10.00 Fair CLR 49.8 32.2 51% 45 30.13 0.0
03 09:36 SW 8 10.00 Fair CLR 48.2 32 54% 45 30.13 0.0
03 09:16 SW 8 10.00 Fair CLR 47.1 32 56% 44 30.14 0.0
03 08:56 SW 7 10.00 Fair CLR 45.1 31.8 60% 42 30.13 0.0
03 08:36 SW 9 10.00 Fair CLR 43.2 31.8 64% 38 30.13 0.0
03 08:16 SW 8 10.00 Fair CLR 41.9 32 68% 37 30.13 0.0
03 07:56 SW 8 10.00 Fair CLR 40.1 31.8 40.1 32 72% 35 30.13 0.0
03 07:36 SW 6 10.00 Fair CLR 38.3 31.8 78% 34 30.12 0.0
03 07:16 SW 7 10.00 Fair CLR 37 31.1 79% 32 30.12 0.0
03 06:56 SW 7 10.00 Fair CLR 36.5 31.1 81% 32 30.11 0.0
03 06:36 SW 6 10.00 Fair CLR 36.5 30.9 80% 32 30.1 0.0
03 06:16 SW 5 10.00 Fair CLR 36 31.1 83% 33 30.1 0.0
03 05:56 SW 6 10.00 Fair CLR 36.5 30.9 80% 32 30.09 0.0
03 05:36 SW 5 10.00 Fair CLR 37 30.6 77% 34 30.09 0.0
03 05:16 SW 3 10.00 Fair CLR 36.5 30.9 80% 30.1 0.0
03 04:56 SW 3 10.00 Fair CLR 33.4 30.7 90% 30.09 0.0
03 04:36 Calm 10.00 Fair CLR 32.5 31.5 96% 30.09 0.0
03 04:16 Calm 10.00 Fair CLR 32.4 31.6 97% 30.09 0.0
03 03:56 Calm 10.00 Fair CLR 33.8 32 93% 30.09 0.0
03 03:36 Calm 10.00 Fair CLR 32.9 31.8 96% 30.09 0.0
03 03:16 Calm 10.00 Fair CLR 33.1 32 96% 30.09 0.0
03 02:56 Calm 10.00 Fair CLR 35.1 31.6 87% 30.09 0.0
03 02:36 Calm 10.00 Fair CLR 35.6 32 87% 30.09 0.0
03 02:16 Calm 10.00 Fair CLR 34.7 31.6 89% 30.1 0.0
03 01:56 SW 3 10.00 Fair CLR 36.5 32 49.1 35.4 84% 30.1 0.0
03 01:36 SW 3 10.00 Fair CLR 36.5 32 84% 30.1 0.0
03 01:16 SW 5 10.00 Fair CLR 36 32.2 86% 33 30.1 0.0
03 00:56 SW 5 10.00 Fair CLR 36 32.2 86% 33 30.1 0.0
03 00:36 Calm 10.00 Fair CLR 36.7 32 83% 30.1 0.0
03 00:16 SW 5 10.00 Fair CLR 37.8 32 80% 35 30.1 0.0
02 23:56 SW 3 10.00 Fair CLR 38.1 31.8 78% 30.1 0.0
02 23:36 Calm 10.00 Fair CLR 39.6 31.1 72% 30.1 0.0
02 23:16 Calm 10.00 Fair CLR 41 31.1 68% 30.1 0.0
02 22:56 Calm 10.00 Fair CLR 41.9 31.3 66% 30.1 0.0
02 22:36 Calm 10.00 Fair CLR 42.8 30 61% 30.1 0.0
02 22:16 Calm 10.00 Fair CLR 42.6 29.1 59% 30.1 0.0
02 21:56 N 3 10.00 Fair CLR 44.6 28.4 53% 30.09 0.0
02 21:36 N 5 10.00 Fair CLR 44.8 28.2 52% 43 30.09 0.0
02 21:16 N 3 10.00 Fair CLR 45.3 28.2 51% 30.08 0.0
02 20:56 N 3 10.00 Partly Cloudy SCT065 46.2 27.9 49% 30.07 0.0
02 20:36 N 6 10.00 Mostly Cloudy BKN065 47.3 27.5 46% 45 30.07 0.0
02 20:16 N 6 10.00 Mostly Cloudy SCT070 BKN075 48 28.9 48% 46 30.06 0.0
02 19:56 N 6 10.00 Overcast SCT060 OVC070 49.3 27.1 56.1 49.3 42% 47 30.05 0.0
02 19:36 N 8 10.00 Overcast SCT070 OVC080 50 27 41% 47 30.05 0.0
02 19:16 N 9 10.00 Overcast SCT070 OVC080 50.9 27.1 40% 30.05 0.0
02 18:56 N 8 10.00 Overcast OVC080 51.1 27.1 40% 30.05 0.0
02 18:36 N 7 10.00 Overcast SCT070 OVC080 50.9 26.8 39% 30.04 0.0
02 18:16 N 8 10.00 Overcast SCT070 OVC080 51.4 26.1 37% 30.04 0.0
02 17:56 N 10 10.00 Overcast BKN070 OVC090 51.8 26.2 37% 30.04 0.0
02 17:36 NW 8 10.00 Mostly Cloudy BKN070 52.5 26.8 37% 30.04 0.0
02 17:16 N 12 G 17 10.00 Mostly Cloudy BKN080 51.8 25 35% 30.03 0.0
02 16:56 N 10 10.00 Mostly Cloudy BKN080 53.2 26.8 36% 30.03 0.0
02 16:36 NW 12 G 18 10.00 Mostly Cloudy BKN075 53.8 26.4 35% 30.03 0.0
02 16:16 NW 14 10.00 Mostly Cloudy BKN075 55.4 28.4 36% 30.03 0.0
02 15:56 N 12 10.00 Mostly Cloudy BKN075 54.9 27.5 35% 30.04 0.0
02 15:36 NW 10 G 17 10.00 Overcast OVC065 53.8 27 36% 30.04 0.0
02 15:16 NW 14 10.00 Overcast OVC065 54.7 27.3 35% 30.05 0.0
02 14:56 NW 14 G 20 10.00 Mostly Cloudy BKN065 52.9 26.8 36% 30.05 0.0
02 14:36 W 10 G 20 10.00 Mostly Cloudy BKN065 53.4 27.7 37% 30.05 0.0
02 14:16 NW 9 G 21 10.00 Mostly Cloudy BKN070 52.5 26.8 37% 30.06 0.0
02 13:56 NW 13 G 17 10.00 Mostly Cloudy BKN060 BKN070 53.8 27.9 54.3 38.1 37% 30.06 0.0
02 13:36 NW 12 10.00 Mostly Cloudy SCT060 BKN070 51.6 26.6 38% 30.06 0.0
02 13:16 N 8 10.00 Mostly Cloudy BKN060 52.5 29.5 41% 30.06 0.0
02 12:56 N 13 G 22 10.00 Partly Cloudy SCT065 51.1 27.7 40% 30.07 0.0
02 12:36 NW 13 G 18 10.00 Partly Cloudy SCT049 SCT065 52.3 29.5 42% 30.07 0.0
02 12:16 NW 12 G 16 10.00 Partly Cloudy SCT049 52.2 31.1 45% 30.08 0.0
02 11:56 NW 12 10.00 Partly Cloudy SCT049 SCT070 51.4 31.5 47% 30.08 0.0
02 11:36 N 7 10.00 Partly Cloudy SCT047 SCT070 51.6 32.4 48% 30.09 0.0
02 11:16 N 7 10.00 Partly Cloudy SCT065 49.5 30 47% 47 30.09 0.0
02 10:56 N 7 10.00 Mostly Cloudy SCT055 BKN065 48 30.4 51% 45 30.09 0.0
02 10:36 N 9 10.00 Mostly Cloudy BKN065 46.8 28.2 49% 43 30.09 0.0
02 10:16 N 8 10.00 Partly Cloudy SCT065 47.5 30.7 52% 44 30.09 0.0
02 09:56 NW 5 10.00 Fair CLR 46.4 32.5 59% 45 30.09 0.0
02 09:36 N 6 10.00 Fair CLR 45 31.3 59% 42 30.08 0.0
02 09:16 N 5 10.00 Fair CLR 44.1 33.6 67% 42 30.08 0.0
02 08:56 N 6 10.00 Fair CLR 42.8 35.1 74% 40 30.08 0.0
02 08:36 NE 3 10.00 Fair CLR 41.7 36 80% 30.08 0.0
02 08:16 N 3 10.00 Fair CLR 40.5 36.5 86% 30.08 0.0
02 07:56 Calm 10.00 Fair CLR 37.2 36.9 40.6 35.4 99% 30.07 0.0
02 07:36 Calm 10.00 Mostly Cloudy BKN070 36.5 35.1 95% 30.06 0.0
02 07:16 Calm 10.00 Overcast OVC080 36.5 35.2 95% 30.06 0.0
02 06:56 Calm 10.00 Mostly Cloudy BKN080 36 34.7 95% 30.06 0.0
02 06:36 Calm 10.00 Mostly Cloudy BKN080 36 34.7 95% 30.06 0.0
02 06:16 Calm 10.00 Mostly Cloudy BKN080 35.6 34.9 97% 30.06 0.0
02 05:56 Calm 10.00 Fair CLR 35.8 34.2 94% 30.06 0.0
02 05:36 Calm 10.00 Partly Cloudy SCT070 37 35.2 93% 30.06 0.0
02 05:16 SW 3 10.00 Partly Cloudy SCT060 SCT070 37.4 35.2 92% 30.06 0.0
02 04:56 Calm 10.00 Overcast BKN060 OVC070 37.4 35.2 92% 30.06 0.0
02 04:36 Calm 10.00 Mostly Cloudy SCT060 BKN070 37 35.1 93% 30.06 0.0
02 04:16 Calm 10.00 Mostly Cloudy BKN060 BKN070 37.8 35.1 90% 30.06 0.0
02 03:56 Calm 10.00 Fair CLR 37.9 34.9 89% 30.05 0.0
02 03:36 Calm 10.00 Fair CLR 39.7 34.9 83% 30.05 0.0
02 03:16 Calm 10.00 Fair CLR 39.7 34.9 83% 30.05 0.0
02 02:56 Calm 10.00 Fair CLR 39.7 34.9 83% 30.05 0.0
02 02:36 Calm 10.00 Partly Cloudy SCT075 39.6 36.1 88% 30.06 0.0
02 02:16 Calm 10.00 Mostly Cloudy BKN075 39.9 36 86% 30.06 0.0
02 01:56 Calm 10.00 Partly Cloudy SCT075 40.1 36.7 50 39.2 88% 30.07 0.0
02 01:36 Calm 10.00 Fair CLR 40.3 37.2 89% 30.07 0.0
02 01:16 Calm 10.00 Fair CLR 39.9 37.4 91% 30.07 0.0
02 00:56 Calm 10.00 Partly Cloudy SCT065 40.8 37.8 89% 30.07 0.0
02 00:36 Calm 10.00 Partly Cloudy SCT065 40.3 37.2 89% 30.07 0.0
02 00:16 Calm 10.00 Fair CLR 41.2 38.1 89% 30.07 0.0
01 23:56 Calm 10.00 Fair CLR 40.1 38.1 93% 30.07 0.0
01 23:36 Calm 10.00 Partly Cloudy SCT049 SCT075 41.4 38.3 89% 30.07 0.0
01 23:16 Calm 10.00 Partly Cloudy SCT049 SCT075 41.9 38.3 87% 30.07 0.0
01 22:56 Calm 10.00 Partly Cloudy SCT075 41.9 38.3 87% 30.07 0.0
01 22:36 Calm 10.00 Mostly Cloudy BKN075 42.6 38.7 86% 30.07 0.0
01 22:16 Calm 10.00 Fair CLR 43.3 38.3 82% 30.06 0.0
01 21:56 Calm 10.00 Fair CLR 44.1 37.6 78% 30.05 0.0
01 21:36 Calm 10.00 Fair CLR 45.3 37.4 74% 30.04 0.0
01 21:16 Calm 10.00 Fair CLR 46.4 36 67% 30.04 0.0
01 20:56 Calm 10.00 Fair CLR 47.7 35.2 62% 30.03 0.0
01 20:36 N 3 10.00 Fair CLR 48.2 35.6 62% 30.01 0.0
01 20:16 Calm 10.00 Partly Cloudy SCT050 SCT075 48.4 35.8 62% 29.99 0.0
01 19:56 NE 5 10.00 Mostly Cloudy SCT050 SCT065 BKN075 50.2 36 57.2 50.2 58% 30 0.0
01 19:36 N 3 10.00 Mostly Cloudy SCT075 BKN080 51.8 33.6 50% 30.01 0.0
01 19:16 N 8 10.00 Partly Cloudy SCT075 51.3 33.1 50% 30 0.0
01 18:56 NW 9 10.00 Mostly Cloudy BKN075 52.3 32.2 46% 30 0.0
01 18:36 N 8 G 18 10.00 Partly Cloudy SCT060 SCT075 53.1 33.6 48% 29.99 0.0
01 18:16 N 13 G 17 10.00 Mostly Cloudy SCT042 SCT049 BKN075 52.9 34.2 49% 30 0.0
01 17:56 N 9 10.00 Mostly Cloudy SCT042 BKN075 52.2 34.9 52% 30 0.0
01 17:36 N 10 G 22 10.00 Mostly Cloudy SCT043 SCT050 BKN075 52.7 35.4 52% 29.99 0.0
01 17:16 N 12 G 23 10.00 Mostly Cloudy SCT045 BKN055 BKN065 53.1 34.9 50% 29.99 0.0
01 16:56 N 12 G 21 10.00 Mostly Cloudy SCT045 BKN050 54 34.7 48% 29.98 0.0
01 16:36 N 16 G 21 10.00 Mostly Cloudy SCT045 BKN050 54.7 36.3 50% 29.98 0.0
01 16:16 NW 13 G 23 10.00 Mostly Cloudy SCT043 BKN050 55.9 36.5 48% 29.98 0.0
Date Time (edt) Wind (mph) Vis. (mi.) Weather Sky Cond. Air Dwpt Max. Min. Relative Humidity Wind Chill (°F) Heat Index (°F) altimeter (in) sea level (mb) 1 hr 3 hr 6 hr
6 hour
Temperature (ºF) Pressure Precipitation (in)